Time;durP1;ratioP1;P1;durP2;ratioP2;P2;SDS_P1;SDS_P2;PMS_P1;PMS_P2;Temp;Humidity;BMP_temperature;BMP_pressure;BME280_temperature;BME280_humidity;BME280_pressure;Samples;Min_cycle;Max_cycle;Signal;HPM_P1;HPM_P2
2023/04/15 00:01:28;;;;;;;8.10;3.23;;;;;;;6.29;100.00;100242.50;6073371;28;20280;-71
2023/04/15 00:04:24;;;;;;;5.95;3.22;;;;;;;6.37;100.00;100240.03;6071809;28;20045;-72
2023/04/15 00:07:19;;;;;;;8.55;3.20;;;;;;;6.42;100.00;100245.75;6056515;28;20375;-71
2023/04/15 00:10:15;;;;;;;7.80;3.60;;;;;;;6.42;100.00;100248.38;6072947;28;20038;-72
2023/04/15 00:13:10;;;;;;;6.80;3.00;;;;;;;6.31;100.00;100240.56;6073405;28;20132;-72
2023/04/15 00:16:07;;;;;;;5.80;3.13;;;;;;;6.35;100.00;100244.63;6072225;28;20414;-71
2023/04/15 00:19:02;;;;;;;11.57;3.78;;;;;;;6.26;100.00;100227.78;6073387;28;20056;-71
2023/04/15 00:21:59;;;;;;;8.03;3.23;;;;;;;6.16;100.00;100221.66;6073132;28;20103;-71
2023/04/15 00:24:54;;;;;;;7.00;3.00;;;;;;;6.25;100.00;100246.38;6072310;28;20037;-71
2023/04/15 00:27:49;;;;;;;6.50;3.17;;;;;;;6.17;100.00;100231.19;6072885;28;20041;-73
2023/04/15 00:30:45;;;;;;;7.17;3.17;;;;;;;6.09;100.00;100225.75;6072898;28;20518;-71
2023/04/15 00:33:40;;;;;;;6.93;3.47;;;;;;;6.12;100.00;100214.13;6072532;28;20041;-71
2023/04/15 00:36:35;;;;;;;7.50;3.47;;;;;;;6.02;100.00;100210.63;6078102;28;20493;-71
2023/04/15 00:39:30;;;;;;;8.73;3.83;;;;;;;6.13;100.00;100221.06;6072383;28;20025;-70
2023/04/15 00:42:26;;;;;;;7.97;3.43;;;;;;;6.24;100.00;100228.91;6073095;28;20025;-72
2023/04/15 00:45:22;;;;;;;7.63;3.50;;;;;;;6.26;100.00;100211.16;6072192;28;20083;-73
2023/04/15 00:48:17;;;;;;;8.00;4.05;;;;;;;6.28;100.00;100219.75;6073056;28;20038;-71
2023/04/15 00:51:13;;;;;;;6.23;3.53;;;;;;;6.20;100.00;100212.53;6088225;28;20037;-71
2023/04/15 00:54:08;;;;;;;8.85;4.10;;;;;;;6.28;100.00;100219.75;6071518;28;20485;-71
2023/04/15 00:57:05;;;;;;;8.10;3.93;;;;;;;6.34;100.00;100232.41;6072729;28;20051;-71
2023/04/15 01:00:01;;;;;;;7.47;3.50;;;;;;;6.41;100.00;100225.66;6072603;28;20474;-71
2023/04/15 01:02:56;;;;;;;6.80;3.08;;;;;;;6.29;100.00;100217.00;6072611;28;20064;-71
2023/04/15 01:05:57;;;;;;;8.90;4.07;;;;;;;6.32;100.00;100216.75;6074829;28;20084;-71
2023/04/15 01:08:53;;;;;;;9.65;3.78;;;;;;;6.31;100.00;100212.44;6076783;28;20474;-72
2023/04/15 01:11:48;;;;;;;8.77;4.00;;;;;;;6.28;100.00;100214.50;6087646;28;20375;-72
2023/04/15 01:14:44;;;;;;;6.53;3.03;;;;;;;6.30;100.00;100218.69;6072544;28;20037;-73
2023/04/15 01:17:39;;;;;;;9.10;4.28;;;;;;;6.30;100.00;100213.41;6077839;28;20037;-72
2023/04/15 01:20:35;;;;;;;9.27;4.57;;;;;;;6.22;100.00;100220.31;6075373;28;20036;-71
2023/04/15 01:23:30;;;;;;;8.90;3.78;;;;;;;6.07;100.00;100190.84;6084648;28;20110;-70
2023/04/15 01:26:26;;;;;;;9.20;4.30;;;;;;;6.26;100.00;100208.53;6103057;28;20044;-71
2023/04/15 01:29:22;;;;;;;8.60;3.95;;;;;;;6.14;100.00;100196.44;6076695;28;20056;-72
2023/04/15 01:32:17;;;;;;;8.13;4.20;;;;;;;6.27;100.00;100202.31;6077179;28;20041;-72
2023/04/15 01:35:13;;;;;;;8.43;3.58;;;;;;;6.24;100.00;100203.41;6076185;28;20128;-71
2023/04/15 01:38:09;;;;;;;8.07;3.80;;;;;;;6.13;100.00;100189.50;6080109;28;20041;-72
2023/04/15 01:41:06;;;;;;;9.60;5.00;;;;;;;6.18;100.00;100184.66;6076397;28;20394;-72
2023/04/15 01:44:01;;;;;;;9.98;4.50;;;;;;;6.13;100.00;100195.59;6075799;28;20561;-72
2023/04/15 01:46:57;;;;;;;9.70;4.33;;;;;;;6.07;100.00;100179.47;6076196;28;20043;-72
2023/04/15 01:49:52;;;;;;;10.60;4.43;;;;;;;6.12;100.00;100180.75;6076399;28;20032;-72
2023/04/15 01:52:48;;;;;;;9.25;4.25;;;;;;;6.20;100.00;100190.63;6076218;28;20037;-72
2023/04/15 01:55:43;;;;;;;11.97;5.47;;;;;;;6.13;100.00;100189.50;6075603;28;20446;-72
2023/04/15 01:58:39;;;;;;;10.97;5.03;;;;;;;6.04;100.00;100177.09;6076382;28;20290;-71
2023/04/15 02:01:34;;;;;;;11.70;5.35;;;;;;;6.16;100.00;100189.22;6076250;28;20037;-71
2023/04/15 02:04:29;;;;;;;11.20;4.87;;;;;;;5.97;100.00;100156.59;6075800;28;20399;-72
2023/04/15 02:07:25;;;;;;;13.07;5.53;;;;;;;6.01;100.00;100172.13;6077172;28;20040;-71
2023/04/15 02:10:20;;;;;;;13.10;4.95;;;;;;;6.11;100.00;100183.53;6075785;28;20048;-71
2023/04/15 02:13:16;;;;;;;11.23;4.77;;;;;;;5.98;100.00;100166.13;6079533;28;20037;-72
2023/04/15 02:16:16;;;;;;;14.37;5.57;;;;;;;6.07;100.00;100179.47;6100107;28;20124;-71
2023/04/15 02:19:12;;;;;;;13.43;5.50;;;;;;;6.03;100.00;100165.75;6074432;28;20271;-71
2023/04/15 02:22:08;;;;;;;14.68;5.72;;;;;;;5.95;100.00;100161.13;6100016;28;20052;-72
2023/04/15 02:25:04;;;;;;;16.15;6.35;;;;;;;6.02;100.00;100157.97;6099290;28;20041;-72
2023/04/15 02:27:59;;;;;;;16.52;6.07;;;;;;;5.99;100.00;100166.97;6098625;28;20033;-71
2023/04/15 02:30:56;;;;;;;22.75;6.88;;;;;;;6.03;100.00;100181.56;6083529;28;20036;-71
2023/04/15 02:33:51;;;;;;;16.65;6.18;;;;;;;5.95;100.00;100165.59;6074546;28;20037;-71
2023/04/15 02:36:48;;;;;;;18.60;6.53;;;;;;;5.92;100.00;100174.53;6075385;28;20037;-71
2023/04/15 02:39:44;;;;;;;13.30;5.68;;;;;;;5.84;100.00;100163.00;6075797;28;20033;-71
2023/04/15 02:42:40;;;;;;;15.10;6.28;;;;;;;5.92;100.00;100171.91;6093755;28;20035;-71
2023/04/15 02:45:35;;;;;;;18.33;6.60;;;;;;;5.98;100.00;100183.72;6098682;28;20612;-71
2023/04/15 02:48:30;;;;;;;15.77;6.63;;;;;;;5.87;100.00;100173.28;6087182;28;20041;-72
2023/04/15 02:51:30;;;;;;;18.27;6.60;;;;;;;5.98;100.00;100181.09;6075219;28;20086;-71
2023/04/15 02:54:27;;;;;;;17.77;7.13;;;;;;;5.94;100.00;100179.69;6074059;28;20836;-72
2023/04/15 02:57:22;;;;;;;17.23;6.95;;;;;;;5.87;100.00;100166.22;6075088;28;20047;-71
2023/04/15 03:00:18;;;;;;;17.37;6.37;;;;;;;5.87;100.00;100176.72;6074630;28;20045;-71
2023/04/15 03:03:14;;;;;;;17.50;6.10;;;;;;;5.91;100.00;100164.16;6074354;28;20049;-71
2023/04/15 03:06:09;;;;;;;17.73;6.85;;;;;;;5.88;100.00;100175.78;6074406;28;20500;-70
2023/04/15 03:09:04;;;;;;;14.40;6.55;;;;;;;5.86;100.00;100171.59;6084801;28;20403;-71
2023/04/15 03:12:00;;;;;;;14.57;6.27;;;;;;;5.94;100.00;100179.69;6074308;28;20041;-71
2023/04/15 03:14:55;;;;;;;18.30;6.93;;;;;;;5.97;100.00;100179.44;6073959;28;20040;-70
2023/04/15 03:17:50;;;;;;;16.43;6.80;;;;;;;5.87;100.00;100174.09;6074363;28;20402;-71
2023/04/15 03:20:46;;;;;;;17.43;6.13;;;;;;;5.87;100.00;100171.47;6074236;28;20330;-70
2023/04/15 03:23:41;;;;;;;21.67;6.90;;;;;;;5.82;100.00;100170.16;6073602;28;20490;-71
2023/04/15 03:26:36;;;;;;;17.37;6.77;;;;;;;5.98;100.00;100187.19;6074265;28;20052;-70
2023/04/15 03:29:31;;;;;;;17.20;7.03;;;;;;;5.88;100.00;100181.03;6075651;28;20128;-69
2023/04/15 03:32:27;;;;;;;21.03;7.83;;;;;;;5.81;100.00;100169.34;6097933;28;20436;-71
2023/04/15 03:35:22;;;;;;;16.87;7.00;;;;;;;5.94;100.00;100184.94;6080961;28;20033;-69
2023/04/15 03:38:17;;;;;;;21.83;7.70;;;;;;;5.82;100.00;100171.00;6073949;28;20042;-70
2023/04/15 03:41:13;;;;;;;20.65;7.45;;;;;;;5.91;100.00;100190.47;6073886;28;20538;-71
2023/04/15 03:44:08;;;;;;;18.23;6.77;;;;;;;5.79;100.00;100166.00;6074866;28;20037;-70
2023/04/15 03:47:03;;;;;;;18.63;7.13;;;;;;;5.85;100.00;100177.81;6107991;28;20055;-70
2023/04/15 03:49:58;;;;;;;21.47;7.27;;;;;;;5.89;100.00;100180.09;6100601;28;20029;-72
2023/04/15 03:52:54;;;;;;;16.83;7.20;;;;;;;5.80;100.00;100172.94;6097547;28;20163;-70
2023/04/15 03:55:49;;;;;;;20.23;7.20;;;;;;;5.78;100.00;100169.59;6077919;28;20494;-71
2023/04/15 03:58:44;;;;;;;21.23;7.70;;;;;;;5.86;100.00;100179.50;6073699;28;20035;-71
2023/04/15 04:01:40;;;;;;;19.13;7.45;;;;;;;5.80;100.00;100172.09;6073179;28;20309;-70
2023/04/15 04:04:35;;;;;;;20.43;8.50;;;;;;;5.78;100.00;100174.88;6072620;28;20384;-71
2023/04/15 04:07:31;;;;;;;18.27;7.33;;;;;;;5.77;100.00;100183.72;6073183;28;20037;-72
2023/04/15 04:10:26;;;;;;;20.63;7.55;;;;;;;5.65;100.00;100162.88;6077326;28;20033;-71
2023/04/15 04:13:21;;;;;;;23.10;10.03;;;;;;;5.75;100.00;100175.13;6072699;28;20394;-71
2023/04/15 04:16:17;;;;;;;23.77;9.00;;;;;;;5.74;100.00;100186.59;6072965;28;20036;-72
2023/04/15 04:19:13;;;;;;;18.17;8.30;;;;;;;5.77;100.00;100178.44;6073188;28;20037;-71
2023/04/15 04:22:08;;;;;;;25.75;10.30;;;;;;;5.74;100.00;100178.69;6073109;28;20041;-70
2023/04/15 04:25:04;;;;;;;25.07;9.47;;;;;;;5.66;100.00;100165.34;6072686;28;20522;-71
2023/04/15 04:28:00;;;;;;;23.38;8.23;;;;;;;5.63;100.00;100173.50;6073164;28;20026;-71
2023/04/15 04:30:55;;;;;;;22.83;9.73;;;;;;;5.74;100.00;100185.75;6073005;28;20029;-72
2023/04/15 04:33:50;;;;;;;20.10;8.57;;;;;;;5.76;100.00;100189.91;6072109;28;20040;-73
2023/04/15 04:36:46;;;;;;;21.77;7.93;;;;;;;5.68;100.00;100173.94;6073333;28;20037;-70
2023/04/15 04:39:41;;;;;;;22.63;8.83;;;;;;;5.80;100.00;100196.59;6075958;28;20039;-72
2023/04/15 04:42:36;;;;;;;23.27;8.97;;;;;;;5.75;100.00;100190.91;6072908;28;20029;-70
2023/04/15 04:45:31;;;;;;;27.40;8.87;;;;;;;5.70;100.00;100174.66;6079957;28;20164;-70
2023/04/15 04:48:27;;;;;;;18.07;7.80;;;;;;;5.73;100.00;100184.09;6073063;28;20737;-72
2023/04/15 04:51:22;;;;;;;27.80;10.67;;;;;;;5.70;100.00;100177.31;6075436;28;20079;-72
2023/04/15 04:54:17;;;;;;;27.60;10.83;;;;;;;5.67;100.00;100171.44;6077117;28;20065;-72
2023/04/15 04:57:13;;;;;;;33.47;10.00;;;;;;;5.70;100.00;100171.19;6077622;28;20398;-73
2023/04/15 05:00:08;;;;;;;28.57;10.30;;;;;;;5.75;100.00;100190.06;6077261;28;20647;-71
2023/04/15 05:03:04;;;;;;;26.45;10.43;;;;;;;5.71;100.00;100163.16;6077230;28;20057;-72
2023/04/15 05:05:59;;;;;;;27.67;10.63;;;;;;;5.81;100.00;100190.41;6076677;28;20048;-72
2023/04/15 05:08:55;;;;;;;29.35;10.63;;;;;;;5.75;100.00;100190.91;6082507;28;20032;-71
2023/04/15 05:11:50;;;;;;;33.10;11.73;;;;;;;5.72;100.00;100178.00;6083154;28;20045;-71
2023/04/15 05:14:46;;;;;;;29.67;12.00;;;;;;;5.69;100.00;100170.34;6076431;28;20029;-71
2023/04/15 05:17:41;;;;;;;33.03;12.40;;;;;;;5.79;100.00;100181.78;6077017;28;20064;-70
2023/04/15 05:20:37;;;;;;;33.37;11.70;;;;;;;5.81;100.00;100179.03;6076871;28;20046;-73
2023/04/15 05:23:32;;;;;;;34.90;12.48;;;;;;;5.68;100.00;100149.47;6076432;28;20179;-71
2023/04/15 05:26:27;;;;;;;34.50;11.43;;;;;;;5.79;100.00;100159.88;6092201;28;20033;-72
2023/04/15 05:29:23;;;;;;;32.20;11.83;;;;;;;5.82;100.00;100163.09;6077041;28;20034;-71
2023/04/15 05:32:18;;;;;;;28.97;10.93;;;;;;;5.81;100.00;100158.81;6076266;28;20036;-70
2023/04/15 05:35:13;;;;;;;27.20;9.83;;;;;;;5.74;100.00;100144.50;6075517;28;20037;-70
2023/04/15 05:38:09;;;;;;;28.17;10.23;;;;;;;5.81;100.00;100153.56;6076475;28;20030;-71
2023/04/15 05:41:04;;;;;;;25.70;9.70;;;;;;;5.78;100.00;100137.19;6077232;28;20112;-71
2023/04/15 05:44:00;;;;;;;30.10;10.70;;;;;;;5.81;100.00;100148.31;6076124;28;20514;-72
2023/04/15 05:46:55;;;;;;;29.45;10.18;;;;;;;5.77;100.00;100141.63;6076524;28;20326;-72
2023/04/15 05:49:51;;;;;;;28.08;10.38;;;;;;;5.84;100.00;100148.00;6075845;28;20470;-70
2023/04/15 05:52:46;;;;;;;23.77;8.37;;;;;;;5.92;100.00;100158.75;6076196;28;20030;-71
2023/04/15 05:55:41;;;;;;;25.03;9.60;;;;;;;5.95;100.00;100160.31;6075601;28;20493;-72
2023/04/15 05:58:36;;;;;;;24.00;8.37;;;;;;;5.99;100.00;100172.22;6089485;28;20112;-72
2023/04/15 06:01:32;;;;;;;19.40;7.73;;;;;;;5.96;100.00;100178.59;6089468;28;20088;-70
2023/04/15 06:04:27;;;;;;;22.50;7.32;;;;;;;5.92;100.00;100177.16;6077261;28;20041;-71
2023/04/15 06:07:23;;;;;;;18.93;6.97;;;;;;;5.97;100.00;100189.97;6099913;28;20032;-70
2023/04/15 06:10:18;;;;;;;19.27;6.67;;;;;;;5.90;100.00;100162.47;6086809;28;20034;-72
2023/04/15 06:13:13;;;;;;;17.33;6.97;;;;;;;5.95;100.00;100182.19;6075713;28;20068;-72
2023/04/15 06:16:08;;;;;;;17.33;7.53;;;;;;;5.82;100.00;100165.72;6091028;28;20436;-70
2023/04/15 06:19:04;;;;;;;17.63;6.80;;;;;;;5.98;100.00;100187.19;6075833;28;20045;-71
2023/04/15 06:22:00;;;;;;;14.70;6.13;;;;;;;5.93;100.00;100168.31;6075539;28;20041;-70
2023/04/15 06:24:55;;;;;;;18.75;6.78;;;;;;;6.01;100.00;100180.03;6075156;28;20482;-70
2023/04/15 06:27:50;;;;;;;17.63;6.30;;;;;;;5.95;100.00;100171.66;6075947;28;20040;-71
2023/04/15 06:30:46;;;;;;;16.13;6.70;;;;;;;5.98;100.00;100181.09;6075714;28;20033;-71
2023/04/15 06:33:41;;;;;;;15.67;5.87;;;;;;;6.03;100.00;100175.44;6072713;28;20501;-72
2023/04/15 06:36:36;;;;;;;18.13;6.70;;;;;;;6.08;100.00;100186.41;6073839;28;20029;-70
2023/04/15 06:39:32;;;;;;;17.20;6.50;;;;;;;6.13;100.00;100189.50;6074599;28;20048;-73
2023/04/15 06:42:27;;;;;;;16.50;6.57;;;;;;;6.12;100.00;100193.91;6079855;28;20530;-73
2023/04/15 06:45:22;;;;;;;13.67;5.90;;;;;;;6.12;100.00;100185.16;6073937;28;20276;-71
2023/04/15 06:48:18;;;;;;;16.07;6.30;;;;;;;6.10;100.00;100179.22;6073921;28;20394;-72
2023/04/15 06:51:13;;;;;;;16.00;6.13;;;;;;;6.19;100.00;100194.22;6073252;28;20366;-70
2023/04/15 06:54:08;;;;;;;12.33;4.97;;;;;;;6.09;100.00;100188.09;6071943;28;20295;-72
2023/04/15 06:57:03;;;;;;;15.93;6.13;;;;;;;6.12;100.00;100185.16;6073123;28;20056;-72
2023/04/15 06:59:59;;;;;;;15.60;5.73;;;;;;;6.29;100.00;100208.28;6072649;28;20161;-72
2023/04/15 07:02:55;;;;;;;14.35;6.28;;;;;;;6.23;100.00;100195.63;6073515;28;20041;-72
2023/04/15 07:05:50;;;;;;;13.95;5.82;;;;;;;6.25;100.00;100197.16;6073036;28;20041;-72
2023/04/15 07:08:45;;;;;;;14.80;5.73;;;;;;;6.31;100.00;100195.81;6072676;28;20497;-72
2023/04/15 07:11:41;;;;;;;9.83;4.37;;;;;;;6.38;100.00;100218.03;6084133;28;20033;-72
2023/04/15 07:14:36;;;;;;;14.77;5.60;;;;;;;6.25;100.00;100196.34;6072149;28;20032;-72
2023/04/15 07:17:32;;;;;;;15.32;5.10;;;;;;;6.39;100.00;100212.63;6074864;28;20040;-71
2023/04/15 07:20:27;;;;;;;12.00;5.03;;;;;;;6.42;100.00;100212.34;6073470;28;20088;-71
2023/04/15 07:23:22;;;;;;;11.87;4.67;;;;;;;6.40;100.00;100214.28;6072034;28;20041;-71
2023/04/15 07:26:19;;;;;;;11.53;4.83;;;;;;;6.39;100.00;100211.78;6073193;28;20112;-72
2023/04/15 07:29:14;;;;;;;10.70;4.72;;;;;;;6.41;100.00;100212.50;6073945;28;20064;-71
2023/04/15 07:32:10;;;;;;;13.93;4.83;;;;;;;6.37;100.00;100208.44;6073342;28;20045;-71
2023/04/15 07:35:05;;;;;;;11.73;4.70;;;;;;;6.43;100.00;100207.94;6073247;28;20518;-71
2023/04/15 07:38:01;;;;;;;11.55;4.28;;;;;;;6.49;100.00;100223.22;6073191;28;20386;-71
2023/04/15 07:40:57;;;;;;;11.23;3.88;;;;;;;6.52;100.00;100222.94;6075361;28;20442;-71
2023/04/15 07:43:52;;;;;;;9.20;3.78;;;;;;;6.50;100.00;100224.84;6072840;28;20045;-72
2023/04/15 07:46:47;;;;;;;8.45;4.18;;;;;;;6.43;100.00;100215.81;6073357;28;20052;-72
2023/04/15 07:49:43;;;;;;;9.90;3.97;;;;;;;6.50;100.00;100227.50;6084297;28;20072;-72
2023/04/15 07:52:38;;;;;;;9.35;3.63;;;;;;;6.54;100.00;100239.44;6085281;28;20028;-70
2023/04/15 07:55:33;;;;;;;6.93;3.53;;;;;;;6.39;100.00;100206.50;6079305;28;20406;-71
2023/04/15 07:58:29;;;;;;;8.77;4.13;;;;;;;6.53;100.00;100230.69;6073409;28;20113;-71
2023/04/15 08:01:24;;;;;;;9.47;3.70;;;;;;;6.53;100.00;100233.34;6073475;28;20045;-72
2023/04/15 08:04:19;;;;;;;9.70;3.55;;;;;;;6.50;100.00;100212.53;6072418;28;20037;-71
2023/04/15 08:07:15;;;;;;;8.97;3.37;;;;;;;6.57;100.00;100226.00;6072818;28;20076;-72
2023/04/15 08:10:10;;;;;;;8.37;3.40;;;;;;;6.64;100.00;100224.50;6073289;28;20120;-72
2023/04/15 08:13:06;;;;;;;7.65;2.92;;;;;;;6.75;100.00;100237.56;6075203;28;20072;-72
2023/04/15 08:16:17;;;;;;;7.80;3.28;;;;;;;6.77;100.00;100230.38;6072532;28;20120;-71
2023/04/15 08:19:12;;;;;;;8.70;3.30;;;;;;;6.88;100.00;100248.72;6062034;28;20051;-72
2023/04/15 08:22:09;;;;;;;6.60;3.13;;;;;;;6.92;100.00;100247.50;6073541;28;20402;-72
2023/04/15 08:25:04;;;;;;;8.05;3.17;;;;;;;6.94;100.00;100244.72;6079247;28;20040;-70
2023/04/15 08:28:03;;;;;;;7.35;3.28;;;;;;;6.98;100.00;100240.84;6092690;28;20030;-71
2023/04/15 08:30:59;;;;;;;6.63;3.25;;;;;;;7.04;100.00;100232.38;6072808;28;20478;-71
2023/04/15 08:33:56;;;;;;;6.55;2.95;;;;;;;7.01;100.00;100236.13;6083769;28;20029;-73
2023/04/15 08:36:51;;;;;;;7.40;3.05;;;;;;;6.98;100.00;100246.97;6094572;28;20064;-71
2023/04/15 08:39:47;;;;;;;6.87;3.13;;;;;;;6.93;100.00;100243.88;6072789;28;20034;-71
2023/04/15 08:42:48;;;;;;;8.05;3.33;;;;;;;7.06;100.00;100262.94;6072726;28;20072;-73
2023/04/15 08:45:45;;;;;;;6.38;3.22;;;;;;;7.04;100.00;100249.03;6087177;28;20398;-71
2023/04/15 08:48:41;;;;;;;6.47;3.00;;;;;;;7.01;100.00;100235.31;6072174;28;20041;-71
2023/04/15 08:51:38;;;;;;;7.78;3.58;;;;;;;7.00;100.00;100245.03;6061249;28;20037;-72
2023/04/15 08:54:35;;;;;;;7.32;3.38;;;;;;;7.01;100.00;100254.56;6086729;28;20087;-72
2023/04/15 08:57:30;;;;;;;5.93;3.20;;;;;;;7.17;100.00;100275.16;6072832;28;20048;-70
2023/04/15 09:00:26;;;;;;;6.72;3.28;;;;;;;7.30;100.00;100267.00;6088246;28;20041;-70
2023/04/15 09:03:22;;;;;;;8.45;3.33;;;;;;;7.34;100.00;100268.41;6071437;28;20033;-72
2023/04/15 09:06:17;;;;;;;7.47;3.53;;;;;;;7.31;100.00;100279.22;6073033;28;20072;-73
2023/04/15 09:09:13;;;;;;;7.63;3.70;;;;;;;7.37;100.00;100273.38;6072738;28;20040;-73
2023/04/15 09:12:09;;;;;;;7.90;3.83;;;;;;;7.17;100.00;100268.06;6073457;28;20037;-72
2023/04/15 09:15:05;;;;;;;8.02;3.78;;;;;;;7.32;100.00;100275.59;6078594;28;20037;-72
2023/04/15 09:18:00;;;;;;;8.07;3.55;;;;;;;7.44;100.00;100290.34;6072343;28;20041;-71
2023/04/15 09:20:56;;;;;;;8.23;3.77;;;;;;;7.31;100.00;100271.31;6072727;28;20037;-72
2023/04/15 09:23:58;;;;;;;9.50;4.43;;;;;;;7.38;100.00;100289.09;6054367;28;20304;-72
2023/04/15 09:26:56;;;;;;;8.90;4.28;;;;;;;7.41;100.00;100288.81;6072521;28;20453;-72
2023/04/15 09:29:53;;;;;;;9.60;4.28;;;;;;;7.50;100.00;100297.72;6055391;28;20041;-73
2023/04/15 09:32:50;;;;;;;10.05;3.90;;;;;;;7.61;100.00;100298.41;6072187;28;20037;-74
2023/04/15 09:35:58;;;;;;;10.23;4.18;;;;;;;7.71;100.00;100301.06;6071530;28;20025;-72
2023/04/15 09:38:57;;;;;;;12.30;4.50;;;;;;;7.58;100.00;100287.31;6076069;28;20033;-74
2023/04/15 09:42:10;;;;;;;11.73;4.97;;;;;;;7.80;100.00;100297.59;6076358;28;20081;-71
2023/04/15 09:45:12;;;;;;;9.85;4.53;;;;;;;7.81;100.00;100291.34;6076598;28;20041;-72
2023/04/15 09:48:21;;;;;;;14.25;5.35;;;;;;;7.88;100.00;100291.63;6076072;28;20043;-73
2023/04/15 09:51:17;;;;;;;13.05;5.18;;;;;;;7.88;100.00;100286.38;6073870;28;20091;-70
2023/04/15 09:54:19;;;;;;;16.10;6.53;;;;;;;7.93;100.00;100295.53;6074458;28;20490;-72
2023/04/15 09:57:14;;;;;;;12.95;5.70;;;;;;;7.97;100.00;100304.81;6072934;28;20482;-73
2023/04/15 10:00:10;;;;;;;13.88;5.40;;;;;;;8.01;100.00;100298.31;6073920;28;20044;-72
2023/04/15 10:03:06;;;;;;;15.10;6.60;;;;;;;8.02;100.00;100305.22;6073575;28;20069;-70
2023/04/15 10:06:02;;;;;;;15.57;6.72;;;;;;;8.15;100.00;100308.41;6072762;28;20044;-70
2023/04/15 10:08:58;;;;;;;16.85;7.00;;;;;;;8.07;100.00;100278.44;6073462;28;20503;-72
2023/04/15 10:11:53;;;;;;;17.17;6.10;;;;;;;8.27;100.00;100291.50;6075618;28;20116;-71
2023/04/15 10:14:55;;;;;;;17.60;6.47;;;;;;;8.46;100.00;100285.31;6078778;28;20029;-71
2023/04/15 10:17:52;;;;;;;16.27;7.18;;;;;;;8.43;100.00;100290.06;6091298;28;20120;-73
2023/04/15 10:20:47;;;;;;;15.07;6.82;;;;;;;8.40;100.00;100282.44;6057636;28;20037;-73
2023/04/15 10:23:44;;;;;;;17.38;7.25;;;;;;;8.46;100.00;100295.91;6074906;28;20040;-72
2023/04/15 10:26:40;;;;;;;19.00;7.57;;;;;;;8.45;100.00;100282.84;6075446;28;20033;-73
2023/04/15 10:29:35;;;;;;;19.80;8.45;;;;;;;8.67;100.00;100301.00;6075349;28;20037;-73
2023/04/15 10:32:30;;;;;;;17.10;7.78;;;;;;;8.73;100.00;100308.34;6057486;28;20040;-72
2023/04/15 10:35:28;;;;;;;18.40;7.57;;;;;;;8.65;100.00;100285.28;6057028;28;20033;-72
2023/04/15 10:38:40;;;;;;;21.52;8.57;;;;;;;8.75;100.00;100293.19;6073849;28;20121;-70
2023/04/15 10:41:36;;;;;;;18.02;7.82;;;;;;;8.72;100.00;100288.19;6089007;28;20033;-72
2023/04/15 10:44:32;;;;;;;18.33;7.40;;;;;;;8.80;100.00;100315.56;6091026;28;20013;-71
2023/04/15 10:47:27;;;;;;;19.10;7.63;;;;;;;8.78;100.00;100290.22;6111923;28;20037;-72
2023/04/15 10:50:25;;;;;;;23.50;8.73;;;;;;;8.72;100.00;100301.41;6091627;28;20355;-72
2023/04/15 10:53:30;;;;;;;22.98;9.05;;;;;;;8.65;100.00;100295.00;6074227;28;20284;-72
2023/04/15 10:56:27;;;;;;;24.60;8.90;;;;;;;8.77;100.00;100312.38;6068643;28;20037;-72
2023/04/15 10:59:22;;;;;;;20.48;8.40;;;;;;;8.87;100.00;100302.59;6074727;28;20037;-71
2023/04/15 11:02:18;;;;;;;22.45;8.60;;;;;;;9.01;100.00;100317.97;6074650;28;20041;-73
2023/04/15 11:05:15;;;;;;;22.27;9.13;;;;;;;8.93;100.00;100309.94;6073816;28;20052;-72
2023/04/15 11:08:11;;;;;;;23.00;9.30;;;;;;;8.95;100.00;100323.84;6081038;28;20051;-72
2023/04/15 11:11:07;;;;;;;23.08;10.07;;;;;;;8.94;100.00;100316.91;6074782;28;20093;-73
2023/04/15 11:14:03;;;;;;;23.52;9.35;;;;;;;8.85;100.00;100323.06;6073779;28;20441;-71
2023/04/15 11:16:58;;;;;;;23.48;10.02;;;;;;;8.93;100.00;100325.81;6078557;28;20482;-74
2023/04/15 11:19:53;;;;;;;22.30;10.00;;;;;;;9.02;100.00;100324.94;6073812;28;20076;-74
2023/04/15 11:22:51;;;;;;;22.67;9.73;;;;;;;9.11;100.00;100331.16;6073740;28;20056;-71
2023/04/15 11:25:47;;;;;;;26.75;10.48;;;;;;;9.10;100.00;100338.28;6073130;28;20088;-71
2023/04/15 11:28:43;;;;;;;26.17;10.85;;;;;;;9.17;100.00;100355.22;6074151;28;20128;-73
2023/04/15 11:31:39;;;;;;;29.42;11.55;;;;;;;9.09;100.00;100368.34;6073394;28;20033;-72
2023/04/15 11:34:34;;;;;;;27.77;11.20;;;;;;;8.99;100.00;100356.97;6072713;28;20040;-72
2023/04/15 11:37:31;;;;;;;28.83;12.23;;;;;;;9.09;100.00;100373.63;6073743;28;20029;-73
2023/04/15 11:40:28;;;;;;;24.48;11.13;;;;;;;8.88;100.00;100365.06;6073464;28;20025;-72
2023/04/15 11:43:24;;;;;;;27.33;11.25;;;;;;;8.92;100.00;100371.72;6073242;28;20112;-72
2023/04/15 11:46:21;;;;;;;32.45;11.90;;;;;;;8.86;100.00;100375.78;6073414;28;20059;-71
2023/04/15 11:49:33;;;;;;;32.30;15.18;;;;;;;8.79;100.00;100371.22;6073695;28;20087;-71
2023/04/15 11:52:29;;;;;;;34.90;13.18;;;;;;;8.86;100.00;100382.88;6073686;28;20041;-70
2023/04/15 11:55:24;;;;;;;31.17;12.47;;;;;;;9.01;100.00;100394.69;6087748;28;20049;-71
2023/04/15 11:58:24;;;;;;;32.05;13.32;;;;;;;8.94;100.00;100390.94;6073638;28;20116;-72
2023/04/15 12:01:19;;;;;;;35.53;13.80;;;;;;;8.99;100.00;100401.94;6073611;28;20025;-72
2023/04/15 12:04:17;;;;;;;32.03;13.73;;;;;;;8.97;100.00;100382.69;6055700;28;20037;-72
2023/04/15 12:07:13;;;;;;;37.05;13.82;;;;;;;8.99;100.00;100394.00;6073077;28;20036;-73
2023/04/15 12:10:08;;;;;;;37.80;14.30;;;;;;;8.94;100.00;100398.88;6073742;28;20037;-74
2023/04/15 12:13:06;;;;;;;40.63;15.07;;;;;;;8.90;100.00;100400.13;6073112;28;20506;-72
2023/04/15 12:16:02;;;;;;;34.10;13.10;;;;;;;8.85;100.00;100397.09;6074178;28;20053;-74
2023/04/15 12:18:58;;;;;;;40.60;15.63;;;;;;;8.89;100.00;100403.75;6073174;28;20033;-72
2023/04/15 12:21:59;;;;;;;44.83;15.57;;;;;;;8.98;100.00;100408.19;6073296;28;20040;-71
2023/04/15 12:24:56;;;;;;;39.00;14.38;;;;;;;9.10;100.00;100416.78;6072723;28;20052;-72
2023/04/15 12:27:52;;;;;;;34.28;13.73;;;;;;;9.21;100.00;100398.94;6072933;28;20068;-71
2023/04/15 12:30:50;;;;;;;44.20;15.05;;;;;;;9.31;100.00;100415.59;6073038;28;20037;-71
2023/04/15 12:33:48;;;;;;;44.38;16.02;;;;;;;9.39;100.00;100418.34;6071984;28;20029;-71
2023/04/15 12:36:43;;;;;;;47.55;16.05;;;;;;;9.46;100.00;100408.84;6073193;28;20474;-73
2023/04/15 12:39:40;;;;;;;40.60;15.87;;;;;;;9.74;100.00;100430.00;6072470;28;20079;-72
2023/04/15 12:42:35;;;;;;;39.65;15.32;;;;;;;9.70;100.00;100420.72;6055174;28;20264;-72
2023/04/15 12:45:30;;;;;;;31.93;13.30;;;;;;;9.89;100.00;100425.91;6072035;28;20060;-73
2023/04/15 12:48:26;;;;;;;29.77;12.87;;;;;;;10.07;100.00;100426.75;6054417;28;20037;-72
2023/04/15 12:51:21;;;;;;;31.37;12.57;;;;;;;10.08;100.00;100420.47;6072267;28;20540;-72
2023/04/15 12:54:17;;;;;;;33.53;12.93;;;;;;;10.14;100.00;100433.13;6071481;28;20061;-73
2023/04/15 12:57:12;;;;;;;30.08;12.45;;;;;;;10.37;100.00;100429.06;6072457;28;20120;-73
2023/04/15 13:00:08;;;;;;;29.60;11.23;;;;;;;10.81;100.00;100429.09;6072846;28;20037;-71
2023/04/15 13:03:12;;;;;;;25.42;11.40;;;;;;;10.62;100.00;100416.88;6073133;28;20079;-73
2023/04/15 13:06:07;;;;;;;31.88;12.80;;;;;;;10.83;100.00;100417.34;6057752;28;20037;-71
2023/04/15 13:09:02;;;;;;;24.57;11.07;;;;;;;10.73;100.00;100428.03;6090089;28;20037;-72
2023/04/15 13:11:59;;;;;;;29.08;11.45;;;;;;;10.94;100.00;100440.97;6072585;28;20426;-72
2023/04/15 13:14:54;;;;;;;26.92;11.02;;;;;;;11.15;100.00;100425.53;6090660;28;20477;-72
2023/04/15 13:17:50;;;;;;;27.27;12.03;;;;;;;11.28;100.00;100448.97;6080114;28;20049;-73
2023/04/15 13:20:46;;;;;;;27.45;11.98;;;;;;;11.34;100.00;100453.66;6074613;28;20046;-72
2023/04/15 13:23:42;;;;;;;27.27;12.10;;;;;;;10.96;100.00;100443.47;6074737;28;20033;-71
2023/04/15 13:26:37;;;;;;;31.13;12.37;;;;;;;11.00;100.00;100456.28;6077051;28;20401;-71
2023/04/15 13:29:32;;;;;;;29.27;12.13;;;;;;;11.02;100.00;100440.19;6076887;28;20275;-73